Time;durP1;ratioP1;P1;durP2;ratioP2;P2;SDS_P1;SDS_P2;PMS_P1;PMS_P2;Temp;Humidity;BMP_temperature;BMP_pressure;BME280_temperature;BME280_humidity;BME280_pressure;Samples;Min_cycle;Max_cycle;Signal;HPM_P1;HPM_P2
2023/03/17 00:00:15;;;;;;;;;;;;;;;1.18;87.35;93471.00;5029178;28;19921;-38
2023/03/17 00:02:41;;;;;;;;;;;;;;;1.11;86.96;93474.16;5029280;28;20051;-38
2023/03/17 00:05:14;;;;;;;;;;;;;;;1.07;86.00;93476.38;5045072;28;19913;-38
2023/03/17 00:07:39;;;;;;;;;;;;;;;1.06;85.66;93485.75;5029296;28;19920;-38
2023/03/17 00:10:08;;;;;;;;;;;;;;;0.97;87.02;93480.53;5045022;28;19913;-38
2023/03/17 00:12:34;;;;;;;;;;;;;;;1.14;87.69;93478.63;5029370;28;19976;-38
2023/03/17 00:14:59;;;;;;;;;;;;;;;1.08;87.43;93483.31;5029550;28;20499;-38
2023/03/17 00:17:24;;;;;;;;;;;;;;;1.01;87.08;93477.56;5029171;28;20405;-38
2023/03/17 00:19:50;;;;;;;;;;;;;;;0.95;87.48;93488.44;5044372;28;19914;-38
2023/03/17 00:22:16;;;;;;;;;;;;;;;0.87;86.81;93490.09;5029186;28;20420;-38
2023/03/17 00:24:41;;;;;;;;;;;;;;;0.89;87.90;93495.06;5030909;28;19919;-38
2023/03/17 00:27:11;;;;;;;;;;;;;;;1.07;87.90;93484.53;5032981;28;19917;-38
2023/03/17 00:29:36;;;;;;;;;;;;;;;0.95;87.54;93480.28;5033245;28;20125;-38
2023/03/17 00:32:02;;;;;;;;;;;;;;;1.04;87.25;93484.78;5032936;28;19913;-38
2023/03/17 00:34:28;;;;;;;;;;;;;;;0.99;87.39;93488.94;5047574;28;20004;-38
2023/03/17 00:36:54;;;;;;;;;;;;;;;1.02;87.59;93479.06;5052702;28;20367;-38
2023/03/17 00:39:20;;;;;;;;;;;;;;;1.05;88.12;93484.28;5052945;28;20007;-38
2023/03/17 00:41:45;;;;;;;;;;;;;;;0.92;87.71;93494.06;5036969;28;20419;-38
2023/03/17 00:44:10;;;;;;;;;;;;;;;0.87;87.57;93481.94;5032853;28;20372;-38
2023/03/17 00:46:36;;;;;;;;;;;;;;;0.93;87.46;93481.97;5032448;28;19964;-38
2023/03/17 00:49:14;;;;;;;;;;;;;;;0.93;86.30;93481.97;5032486;28;19917;-38
2023/03/17 00:51:40;;;;;;;;;;;;;;;0.86;86.75;93485.91;5032557;28;19968;-38
2023/03/17 00:54:05;;;;;;;;;;;;;;;0.95;87.62;93483.00;5032425;28;19982;-38
2023/03/17 00:56:31;;;;;;;;;;;;;;;0.86;87.24;93485.91;5041024;28;19920;-39
2023/03/17 00:58:56;;;;;;;;;;;;;;;0.85;87.45;93492.56;5047687;28;19971;-39
2023/03/17 01:01:22;;;;;;;;;;;;;;;0.90;87.08;93486.41;5032210;28;19921;-38
2023/03/17 01:03:47;;;;;;;;;;;;;;;0.78;87.12;93484.84;5032526;28;20472;-38
2023/03/17 01:06:12;;;;;;;;;;;;;;;0.81;87.83;93483.13;5032189;28;19921;-38
2023/03/17 01:08:38;;;;;;;;;;;;;;;0.84;86.84;93485.66;5032374;28;19913;-38
2023/03/17 01:11:03;;;;;;;;;;;;;;;0.74;84.97;93495.94;5047627;28;19913;-38
2023/03/17 01:13:29;;;;;;;;;;;;;;;0.89;85.04;93476.75;5032061;28;19970;-38
2023/03/17 01:15:55;;;;;;;;;;;;;;;0.83;85.49;93489.56;5032411;28;19917;-38
2023/03/17 01:18:21;;;;;;;;;;;;;;;0.84;85.02;93493.03;5032225;28;19924;-38
2023/03/17 01:20:46;;;;;;;;;;;;;;;0.74;85.85;93492.47;5031810;28;19956;-38
2023/03/17 01:23:12;;;;;;;;;;;;;;;0.77;85.18;93488.81;5032214;28;20013;-38
2023/03/17 01:25:38;;;;;;;;;;;;;;;0.89;85.94;93487.63;5031910;28;20322;-38
2023/03/17 01:28:04;;;;;;;;;;;;;;;0.94;84.31;93484.22;5031757;28;20412;-38
2023/03/17 01:30:38;;;;;;;;;;;;;;;0.85;85.86;93489.84;5031721;28;19917;-39
2023/03/17 01:33:05;;;;;;;;;;;;;;;0.83;84.61;93494.25;5034683;28;19999;-38
2023/03/17 01:35:30;;;;;;;;;;;;;;;0.81;85.30;93491.28;5051327;28;19938;-38
2023/03/17 01:37:56;;;;;;;;;;;;;;;0.96;84.36;93492.63;5036495;28;19917;-38
2023/03/17 01:40:23;;;;;;;;;;;;;;;0.87;85.48;93489.38;5031523;28;19917;-38
2023/03/17 01:42:53;;;;;;;;;;;;;;;0.90;85.42;93491.84;5031804;28;19917;-38
2023/03/17 01:45:37;;;;;;;;;;;;;;;0.87;87.33;93495.53;5031432;28;19944;-38
2023/03/17 01:48:02;;;;;;;;;;;;;;;0.83;88.19;93488.81;5031260;28;19913;-38
2023/03/17 01:50:28;;;;;;;;;;;;;;;0.88;88.72;93494.31;5031407;28;19913;-38
2023/03/17 01:52:53;;;;;;;;;;;;;;;0.81;88.92;93489.31;5047028;28;19920;-38
2023/03/17 01:55:18;;;;;;;;;;;;;;;0.87;87.72;93492.81;5037771;28;19917;-38
2023/03/17 01:57:45;;;;;;;;;;;;;;;0.84;87.85;93499.22;5031863;28;19917;-38
2023/03/17 02:00:12;;;;;;;;;;;;;;;0.95;86.36;93499.31;5046492;28;19925;-38
2023/03/17 02:02:39;;;;;;;;;;;;;;;0.81;86.27;93497.47;5031503;28;20360;-38
2023/03/17 02:05:05;;;;;;;;;;;;;;;0.83;85.64;93505.88;5031438;28;19913;-38
2023/03/17 02:07:30;;;;;;;;;;;;;;;0.69;85.93;93501.34;5031008;28;19948;-38
2023/03/17 02:09:55;;;;;;;;;;;;;;;0.73;85.37;93502.63;5031381;28;19928;-38
2023/03/17 02:12:21;;;;;;;;;;;;;;;0.72;85.75;93497.66;5046342;28;19917;-38
2023/03/17 02:14:46;;;;;;;;;;;;;;;0.70;86.30;93505.53;5046613;28;19913;-38
2023/03/17 02:17:12;;;;;;;;;;;;;;;0.72;86.56;93505.81;5031266;28;19924;-38
2023/03/17 02:19:37;;;;;;;;;;;;;;;0.84;86.60;93506.63;5030848;28;19936;-38
2023/03/17 02:22:03;;;;;;;;;;;;;;;0.77;85.78;93510.53;5031054;28;19979;-38
2023/03/17 02:24:31;;;;;;;;;;;;;;;0.80;86.46;93520.47;5031140;28;19913;-38
2023/03/17 02:26:57;;;;;;;;;;;;;;;0.78;86.74;93525.59;5031045;28;20401;-38
2023/03/17 02:29:23;;;;;;;;;;;;;;;0.70;88.13;93519.88;5030646;28;19966;-38
2023/03/17 02:31:48;;;;;;;;;;;;;;;0.89;86.93;93528.41;5030597;28;20008;-38
2023/03/17 02:34:14;;;;;;;;;;;;;;;0.80;87.09;93530.56;5042968;28;20007;-38
2023/03/17 02:36:40;;;;;;;;;;;;;;;0.81;89.08;93529.34;5065723;28;19923;-38
2023/03/17 02:39:05;;;;;;;;;;;;;;;0.85;90.19;93529.84;5050369;28;19912;-38
2023/03/17 02:41:31;;;;;;;;;;;;;;;0.83;89.19;93535.03;5050238;28;19964;-38
2023/03/17 02:43:56;;;;;;;;;;;;;;;0.83;88.78;93530.34;5050353;28;20007;-38
2023/03/17 02:46:21;;;;;;;;;;;;;;;0.91;88.48;93536.09;5049850;28;19913;-38
2023/03/17 02:48:47;;;;;;;;;;;;;;;0.95;88.09;93537.34;5043283;28;19914;-38
2023/03/17 02:51:12;;;;;;;;;;;;;;;0.99;86.93;93546.03;5030558;28;19975;-38
2023/03/17 02:53:37;;;;;;;;;;;;;;;1.10;86.38;93546.09;5030502;28;19919;-38
2023/03/17 02:56:03;;;;;;;;;;;;;;;1.02;86.82;93539.59;5035756;28;19971;-38
2023/03/17 02:58:28;;;;;;;;;;;;;;;0.98;87.12;93541.81;5050020;28;20309;-39
2023/03/17 03:00:53;;;;;;;;;;;;;;;0.88;88.34;93542.47;5049727;28;20008;-38
2023/03/17 03:03:19;;;;;;;;;;;;;;;0.90;88.12;93548.19;5050319;28;20446;-38
2023/03/17 03:05:44;;;;;;;;;;;;;;;0.91;88.41;93555.13;5049791;28;19916;-38
2023/03/17 03:08:10;;;;;;;;;;;;;;;0.94;87.68;93551.41;5030765;28;19959;-38
2023/03/17 03:10:35;;;;;;;;;;;;;;;0.98;87.58;93554.66;5029754;28;19917;-38
2023/03/17 03:13:01;;;;;;;;;;;;;;;0.97;87.63;93556.66;5030104;28;19967;-38
2023/03/17 03:15:26;;;;;;;;;;;;;;;0.93;87.75;93564.28;5029789;28;20007;-38
2023/03/17 03:17:51;;;;;;;;;;;;;;;0.95;87.79;93566.50;5030048;28;19919;-38
2023/03/17 03:20:17;;;;;;;;;;;;;;;0.86;88.58;93564.72;5029732;28;20377;-38
2023/03/17 03:22:42;;;;;;;;;;;;;;;0.78;89.68;93571.81;5029960;28;19952;-38
2023/03/17 03:25:07;;;;;;;;;;;;;;;0.82;90.03;93569.63;5029703;28;19913;-38
2023/03/17 03:27:33;;;;;;;;;;;;;;;0.85;90.54;93565.19;5029703;28;19917;-38
2023/03/17 03:29:58;;;;;;;;;;;;;;;0.89;89.97;93565.72;5029534;28;19917;-39
2023/03/17 03:32:23;;;;;;;;;;;;;;;0.86;90.53;93563.97;5029870;28;19920;-38
2023/03/17 03:34:49;;;;;;;;;;;;;;;0.88;90.18;93572.38;5046937;28;19959;-38
2023/03/17 03:37:14;;;;;;;;;;;;;;;0.88;89.86;93567.69;5049931;28;19913;-38
2023/03/17 03:39:39;;;;;;;;;;;;;;;0.78;91.87;93572.56;5049886;28;19920;-38
2023/03/17 03:42:05;;;;;;;;;;;;;;;0.77;92.01;93573.78;5049847;28;20324;-38
2023/03/17 03:44:31;;;;;;;;;;;;;;;0.83;91.10;93573.06;5049693;28;19939;-38
2023/03/17 03:46:56;;;;;;;;;;;;;;;0.84;90.68;93578.03;5049637;28;20397;-38
2023/03/17 03:49:21;;;;;;;;;;;;;;;0.93;89.27;93579.84;5037696;28;20620;-38
2023/03/17 03:51:47;;;;;;;;;;;;;;;0.86;89.62;93581.03;5029480;28;19919;-38
2023/03/17 03:54:12;;;;;;;;;;;;;;;0.86;91.38;93583.75;5029472;28;19921;-38
2023/03/17 03:56:37;;;;;;;;;;;;;;;0.92;91.63;93579.09;5039650;28;19971;-38
2023/03/17 03:59:03;;;;;;;;;;;;;;;0.86;92.62;93585.72;5048949;28;19917;-38
2023/03/17 04:01:28;;;;;;;;;;;;;;;0.85;92.54;93589.63;5048905;28;19921;-38
2023/03/17 04:03:53;;;;;;;;;;;;;;;0.88;92.43;93591.41;5064931;28;19951;-38
2023/03/17 04:06:18;;;;;;;;;;;;;;;0.88;92.45;93588.69;5045188;28;20484;-38
2023/03/17 04:08:44;;;;;;;;;;;;;;;0.93;92.31;93596.16;5029354;28;19956;-38
2023/03/17 04:11:10;;;;;;;;;;;;;;;1.04;91.19;93601.66;5029352;28;20412;-38
2023/03/17 04:13:35;;;;;;;;;;;;;;;0.87;91.36;93593.38;5029111;28;19936;-38
2023/03/17 04:16:00;;;;;;;;;;;;;;;0.78;92.05;93598.97;5029356;28;20020;-38
2023/03/17 04:18:26;;;;;;;;;;;;;;;0.78;92.51;93598.97;5029089;28;19917;-38
2023/03/17 04:20:51;;;;;;;;;;;;;;;0.80;93.45;93606.66;5028841;28;19921;-38
2023/03/17 04:23:17;;;;;;;;;;;;;;;0.80;92.34;93604.69;5028897;28;19913;-38
2023/03/17 04:25:43;;;;;;;;;;;;;;;0.82;90.96;93615.06;5028795;28;19921;-38
2023/03/17 04:28:09;;;;;;;;;;;;;;;0.90;91.00;93613.41;5028891;28;19913;-38
2023/03/17 04:30:34;;;;;;;;;;;;;;;0.84;92.33;93609.91;5028868;28;19920;-38
2023/03/17 04:32:59;;;;;;;;;;;;;;;0.84;93.30;93616.09;5030847;28;19913;-38
2023/03/17 04:35:25;;;;;;;;;;;;;;;0.84;91.75;93616.09;5048687;28;19920;-38
2023/03/17 04:37:51;;;;;;;;;;;;;;;0.85;92.53;93620.28;5048703;28;19917;-38
2023/03/17 04:40:17;;;;;;;;;;;;;;;0.81;91.60;93625.19;5048947;28;19916;-38
2023/03/17 04:42:42;;;;;;;;;;;;;;;0.94;91.39;93613.94;5048595;28;20308;-38
2023/03/17 04:45:08;;;;;;;;;;;;;;;0.97;91.43;93623.84;5049039;28;19999;-38
2023/03/17 04:47:34;;;;;;;;;;;;;;;0.91;92.60;93628.50;5048843;28;19914;-38
2023/03/17 04:50:00;;;;;;;;;;;;;;;0.89;93.33;93626.25;5032103;28;20372;-38
2023/03/17 04:52:25;;;;;;;;;;;;;;;0.93;92.48;93628.75;5029015;28;19913;-38
2023/03/17 04:54:50;;;;;;;;;;;;;;;0.91;92.96;93633.94;5028595;28;19917;-38
2023/03/17 04:57:15;;;;;;;;;;;;;;;0.90;92.26;93641.34;5044136;28;19917;-38
2023/03/17 04:59:41;;;;;;;;;;;;;;;0.92;91.88;93643.56;5048527;28;19932;-38
2023/03/17 05:02:06;;;;;;;;;;;;;;;0.92;90.31;93646.28;5048512;28;20360;-38
2023/03/17 05:04:32;;;;;;;;;;;;;;;0.95;91.46;93648.81;5048687;28;19913;-38
2023/03/17 05:06:57;;;;;;;;;;;;;;;0.89;90.91;93655.41;5048717;28;19920;-38
2023/03/17 05:09:23;;;;;;;;;;;;;;;0.98;91.68;93657.94;5048856;28;19917;-38
2023/03/17 05:11:48;;;;;;;;;;;;;;;0.98;89.81;93666.09;5052090;28;20316;-38
2023/03/17 05:14:14;;;;;;;;;;;;;;;1.00;90.28;93661.69;5052113;28;20369;-38
2023/03/17 05:16:39;;;;;;;;;;;;;;;1.08;90.29;93668.19;5051894;28;19955;-38
2023/03/17 05:19:05;;;;;;;;;;;;;;;1.03;90.98;93668.88;5052298;28;19920;-38
2023/03/17 05:21:30;;;;;;;;;;;;;;;1.06;90.69;93669.91;5052137;28;20400;-38
2023/03/17 05:23:56;;;;;;;;;;;;;;;0.99;91.68;93671.06;5051917;28;20019;-38
2023/03/17 05:26:21;;;;;;;;;;;;;;;1.03;92.46;93676.28;5051597;28;19917;-38
2023/03/17 05:28:47;;;;;;;;;;;;;;;1.17;91.47;93683.59;5032180;28;19917;-38
2023/03/17 05:31:12;;;;;;;;;;;;;;;1.26;88.62;93688.81;5031883;28;20344;-38
2023/03/17 05:33:37;;;;;;;;;;;;;;;1.01;87.73;93689.63;5039747;28;20305;-38
2023/03/17 05:36:03;;;;;;;;;;;;;;;1.09;88.21;93693.38;5051969;28;20381;-38
2023/03/17 05:38:28;;;;;;;;;;;;;;;1.02;88.72;93686.41;5052009;28;19917;-38
2023/03/17 05:40:53;;;;;;;;;;;;;;;0.90;90.57;93694.94;5051754;28;19924;-38
2023/03/17 05:43:19;;;;;;;;;;;;;;;0.98;91.41;93699.47;5051858;28;20350;-38
2023/03/17 05:45:46;;;;;;;;;;;;;;;1.07;91.05;93699.31;5051781;28;19913;-38
2023/03/17 05:48:12;;;;;;;;;;;;;;;1.12;92.11;93698.63;5049607;28;19999;-38
2023/03/17 05:50:37;;;;;;;;;;;;;;;1.04;92.55;93704.97;5031453;28;20379;-38
2023/03/17 05:53:02;;;;;;;;;;;;;;;0.98;92.78;93702.19;5031339;28;19917;-38
2023/03/17 05:55:28;;;;;;;;;;;;;;;0.94;93.40;93715.25;5032022;28;19913;-38
2023/03/17 05:57:53;;;;;;;;;;;;;;;0.96;93.61;93706.63;5051464;28;19923;-38
2023/03/17 06:00:20;;;;;;;;;;;;;;;0.90;94.50;93712.00;5051002;28;19950;-38
2023/03/17 06:02:45;;;;;;;;;;;;;;;1.00;93.69;93712.56;5051406;28;19944;-38
2023/03/17 06:05:11;;;;;;;;;;;;;;;0.84;94.13;93713.94;5051166;28;20373;-38
2023/03/17 06:07:37;;;;;;;;;;;;;;;0.93;94.68;93716.50;5036858;28;19917;-38
2023/03/17 06:10:02;;;;;;;;;;;;;;;1.08;93.85;93721.81;5031486;28;19917;-38
2023/03/17 06:12:27;;;;;;;;;;;;;;;1.17;92.75;93719.66;5031400;28;19913;-38
2023/03/17 06:14:53;;;;;;;;;;;;;;;1.23;92.20;93723.19;5031316;28;20348;-38
2023/03/17 06:17:18;;;;;;;;;;;;;;;1.18;92.61;93728.56;5030996;28;19913;-38
2023/03/17 06:19:43;;;;;;;;;;;;;;;1.29;91.76;93732.13;5031182;28;19920;-38
2023/03/17 06:22:09;;;;;;;;;;;;;;;1.11;92.53;93732.47;5030724;28;19925;-38
2023/03/17 06:24:34;;;;;;;;;;;;;;;1.32;90.90;93742.03;5031135;28;20000;-38
2023/03/17 06:27:00;;;;;;;;;;;;;;;1.41;91.00;93738.41;5030860;28;20313;-38
2023/03/17 06:29:27;;;;;;;;;;;;;;;1.36;91.71;93742.59;5031019;28;19913;-38
2023/03/17 06:31:52;;;;;;;;;;;;;;;1.56;88.73;93747.16;5030679;28;19917;-38
2023/03/17 06:34:17;;;;;;;;;;;;;;;1.81;89.07;93737.47;5044119;28;19912;-38
2023/03/17 06:36:44;;;;;;;;;;;;;;;1.72;88.55;93745.81;5050718;28;19917;-38
2023/03/17 06:39:09;;;;;;;;;;;;;;;1.81;89.34;93740.94;5050909;28;19962;-38
2023/03/17 06:41:35;;;;;;;;;;;;;;;2.03;88.57;93740.31;5051054;28;20003;-39
2023/03/17 06:44:00;;;;;;;;;;;;;;;2.11;85.20;93744.06;5050648;28;20041;-38
2023/03/17 06:46:26;;;;;;;;;;;;;;;2.29;85.25;93746.41;5050472;28;19913;-38
2023/03/17 06:48:51;;;;;;;;;;;;;;;2.38;83.70;93748.94;5043122;28;19921;-38
2023/03/17 06:51:16;;;;;;;;;;;;;;;2.57;83.27;93749.25;5031084;28;19917;-38
2023/03/17 06:53:42;;;;;;;;;;;;;;;2.75;83.76;93749.56;5030936;28;20389;-38
2023/03/17 06:56:08;;;;;;;;;;;;;;;2.75;82.37;93746.84;5036548;28;20504;-38
2023/03/17 06:58:33;;;;;;;;;;;;;;;2.71;82.62;93742.84;5050173;28;19967;-38
2023/03/17 07:00:59;;;;;;;;;;;;;;;2.67;84.54;93747.78;5050123;28;19921;-38
2023/03/17 07:03:25;;;;;;;;;;;;;;;2.40;84.93;93743.75;5050187;28;19913;-39
2023/03/17 07:05:51;;;;;;;;;;;;;;;2.50;85.31;93758.63;5050209;28;19913;-38
2023/03/17 07:08:16;;;;;;;;;;;;;;;2.33;86.95;93757.81;5010865;28;20044;-39
2023/03/17 07:10:42;;;;;;;;;;;;;;;2.63;85.51;93755.47;5010717;28;20312;-38
2023/03/17 07:13:09;;;;;;;;;;;;;;;2.68;83.39;93760.22;5010474;28;20376;-38
2023/03/17 07:15:34;;;;;;;;;;;;;;;2.60;84.33;93751.72;5010550;28;19917;-38
2023/03/17 07:18:00;;;;;;;;;;;;;;;2.40;85.51;93760.09;5010293;28;19920;-38
2023/03/17 07:20:25;;;;;;;;;;;;;;;2.58;85.49;93756.94;5010411;28;19918;-38
2023/03/17 07:22:51;;;;;;;;;;;;;;;2.37;85.95;93757.59;5010067;28;20657;-38
2023/03/17 07:25:16;;;;;;;;;;;;;;;2.43;84.89;93755.63;5010427;28;19963;-38
2023/03/17 07:27:41;;;;;;;;;;;;;;;2.33;86.45;93766.00;5021585;28;20293;-38
2023/03/17 07:30:07;;;;;;;;;;;;;;;2.28;85.80;93761.25;5029658;28;19921;-38
2023/03/17 07:32:34;;;;;;;;;;;;;;;2.32;86.47;93763.78;5029339;28;19928;-38
2023/03/17 07:34:59;;;;;;;;;;;;;;;2.45;87.75;93772.25;5063781;28;20497;-38
2023/03/17 07:37:24;;;;;;;;;;;;;;;2.51;86.28;93778.47;5049470;28;20057;-38
2023/03/17 07:39:50;;;;;;;;;;;;;;;2.57;86.26;93774.53;5049808;28;19920;-38
2023/03/17 07:42:16;;;;;;;;;;;;;;;2.78;85.30;93777.81;5049266;28;20312;-38
2023/03/17 07:44:41;;;;;;;;;;;;;;;2.81;85.76;93777.63;5049609;28;20006;-38
2023/03/17 07:47:07;;;;;;;;;;;;;;;2.73;82.46;93782.03;5049286;28;19998;-38
2023/03/17 07:49:32;;;;;;;;;;;;;;;2.79;82.79;93785.53;5036013;28;19924;-38
2023/03/17 07:51:58;;;;;;;;;;;;;;;2.92;83.13;93791.25;5029703;28;19924;-38
2023/03/17 07:54:24;;;;;;;;;;;;;;;3.06;82.79;93778.66;5029145;28;19956;-39
2023/03/17 07:56:50;;;;;;;;;;;;;;;3.28;81.40;93786.16;5041078;28;19947;-38
2023/03/17 07:59:15;;;;;;;;;;;;;;;3.46;80.48;93788.41;5048912;28;19913;-39
2023/03/17 08:01:42;;;;;;;;;;;;;;;3.61;79.96;93789.69;5048659;28;20137;-39
2023/03/17 08:04:09;;;;;;;;;;;;;;;3.87;78.96;93791.41;5049331;28;20388;-39
2023/03/17 08:06:34;;;;;;;;;;;;;;;3.86;76.16;93798.84;5048928;28;19913;-38
2023/03/17 08:09:00;;;;;;;;;;;;;;;3.93;76.70;93795.63;5049265;28;19919;-38
2023/03/17 08:11:25;;;;;;;;;;;;;;;4.01;75.48;93798.59;5049162;28;20369;-38
2023/03/17 08:13:51;;;;;;;;;;;;;;;3.80;76.77;93793.41;5049179;28;20015;-39
2023/03/17 08:16:16;;;;;;;;;;;;;;;4.03;75.47;93796.13;5048775;28;19940;-38
2023/03/17 08:18:41;;;;;;;;;;;;;;;3.89;77.13;93803.34;5037872;28;19982;-38
2023/03/17 08:21:07;;;;;;;;;;;;;;;4.13;76.52;93798.13;5028959;28;20379;-39
2023/03/17 08:23:32;;;;;;;;;;;;;;;4.14;76.77;93796.09;5028907;28;19921;-39
2023/03/17 08:25:58;;;;;;;;;;;;;;;4.09;75.05;93792.16;5029299;28;19921;-39
2023/03/17 08:28:23;;;;;;;;;;;;;;;4.15;75.52;93789.41;5028694;28;19921;-38
2023/03/17 08:30:49;;;;;;;;;;;;;;;4.14;76.06;93788.66;5028873;28;20028;-38
2023/03/17 08:33:14;;;;;;;;;;;;;;;4.29;76.22;93791.13;5033326;28;19919;-39
2023/03/17 08:35:40;;;;;;;;;;;;;;;4.16;76.00;93797.09;5048717;28;20012;-38
2023/03/17 08:38:06;;;;;;;;;;;;;;;4.18;75.99;93791.88;5048626;28;19929;-38
2023/03/17 08:40:31;;;;;;;;;;;;;;;4.09;75.78;93792.16;5048573;28;19931;-39
2023/03/17 08:42:56;;;;;;;;;;;;;;;4.14;76.05;93788.66;5048910;28;19913;-38
2023/03/17 08:45:22;;;;;;;;;;;;;;;4.24;74.75;93787.19;5049862;28;19920;-38
2023/03/17 08:47:47;;;;;;;;;;;;;;;4.38;74.45;93785.38;5052729;28;20005;-38
2023/03/17 08:50:20;;;;;;;;;;;;;;;4.49;74.22;93780.66;5033688;28;20424;-39
2023/03/17 08:52:45;;;;;;;;;;;;;;;4.74;73.63;93789.03;5032303;28;19980;-38
2023/03/17 08:55:11;;;;;;;;;;;;;;;4.84;72.37;93779.28;5032601;28;19990;-38
2023/03/17 08:57:37;;;;;;;;;;;;;;;5.05;72.13;93781.19;5050767;28;19913;-39
2023/03/17 09:00:09;;;;;;;;;;;;;;;5.22;71.88;93786.56;5052126;28;19931;-39
2023/03/17 09:02:35;;;;;;;;;;;;;;;5.46;70.68;93780.47;5052212;28;19917;-38
2023/03/17 09:05:01;;;;;;;;;;;;;;;5.65;70.43;93776.59;5052432;28;19920;-38
2023/03/17 09:07:26;;;;;;;;;;;;;;;5.89;67.77;93779.41;5039344;28;19920;-39
2023/03/17 09:09:52;;;;;;;;;;;;;;;5.73;64.47;93780.28;5032410;28;19917;-38
2023/03/17 09:12:17;;;;;;;;;;;;;;;6.13;65.68;93772.53;5032485;28;20290;-38
2023/03/17 09:14:43;;;;;;;;;;;;;;;6.27;66.97;93768.63;5032068;28;19921;-39
2023/03/17 09:17:09;;;;;;;;;;;;;;;6.57;64.81;93774.81;5032258;28;19917;-39
2023/03/17 09:19:35;;;;;;;;;;;;;;;6.71;62.47;93770.94;5032348;28;20355;-39
2023/03/17 09:22:01;;;;;;;;;;;;;;;7.17;61.42;93770.63;5032066;28;19913;-39
2023/03/17 09:24:27;;;;;;;;;;;;;;;7.46;60.02;93775.22;5031993;28;19917;-38
2023/03/17 09:26:52;;;;;;;;;;;;;;;7.85;59.79;93763.66;5031795;28;19975;-39
2023/03/17 09:29:18;;;;;;;;;;;;;;;8.28;61.52;93755.97;5031927;28;19919;-39
2023/03/17 09:31:43;;;;;;;;;;;;;;;8.42;58.43;93756.75;5031925;28;19921;-39
2023/03/17 09:34:09;;;;;;;;;;;;;;;8.65;55.06;93766.06;5042382;28;19977;-39
2023/03/17 09:36:34;;;;;;;;;;;;;;;8.78;55.17;93766.09;5052060;28;20394;-39
2023/03/17 09:38:59;;;;;;;;;;;;;;;9.34;55.61;93770.47;5051975;28;19962;-39
2023/03/17 09:41:31;;;;;;;;;;;;;;;10.74;54.80;93777.75;5051841;28;20675;-39
2023/03/17 09:43:56;;;;;;;;;;;;;;;12.00;49.29;93773.38;5067261;28;19917;-39
2023/03/17 09:46:33;;;;;;;;;;;;;;;12.50;45.84;93771.03;5051373;28;20415;-39
2023/03/17 09:49:00;;;;;;;;;;;;;;;12.36;48.42;93764.19;5042981;28;19917;-39
2023/03/17 09:51:25;;;;;;;;;;;;;;;11.88;48.59;93769.47;5047031;28;19920;-38
2023/03/17 09:54:01;;;;;;;;;;;;;;;11.88;47.79;93760.44;5046638;28;20455;-39
2023/03/17 09:56:27;;;;;;;;;;;;;;;10.86;49.37;93773.38;5054779;28;19913;-39
2023/03/17 09:58:54;;;;;;;;;;;;;;;10.66;50.49;93761.09;5051199;28;20010;-39
2023/03/17 10:01:19;;;;;;;;;;;;;;;10.87;48.60;93758.31;5066341;28;20047;-39
2023/03/17 10:03:46;;;;;;;;;;;;;;;10.60;43.61;93763.28;5051188;28;20004;-39
2023/03/17 10:06:23;;;;;;;;;;;;;;;10.91;45.67;93762.22;5048056;28;19928;-39
2023/03/17 10:09:15;;;;;;;;;;;;;;;10.25;47.74;93761.91;5046455;28;19978;-39
2023/03/17 10:11:41;;;;;;;;;;;;;;;10.24;47.02;93770.72;5022158;28;20009;-39
2023/03/17 10:14:39;;;;;;;;;;;;;;;9.79;48.83;93770.97;5030933;28;19913;-39
2023/03/17 10:17:10;;;;;;;;;;;;;;;9.16;50.68;93761.81;5018617;28;19916;-39
2023/03/17 10:19:55;;;;;;;;;;;;;;;9.44;50.19;93763.97;5046183;28;20416;-39
2023/03/17 10:22:25;;;;;;;;;;;;;;;8.83;48.16;93767.25;5030743;28;19946;-39
2023/03/17 10:24:51;;;;;;;;;;;;;;;8.89;49.61;93765.88;5046360;28;19917;-38
2023/03/17 10:27:17;;;;;;;;;;;;;;;8.81;48.65;93767.78;5030946;28;19913;-39
2023/03/17 10:29:42;;;;;;;;;;;;;;;8.77;49.90;93770.09;5030829;28;20443;-39
2023/03/17 10:32:12;;;;;;;;;;;;;;;8.89;46.40;93771.38;5030670;28;20416;-39
2023/03/17 10:34:38;;;;;;;;;;;;;;;8.48;47.78;93771.16;5046288;28;19913;-39
2023/03/17 10:37:05;;;;;;;;;;;;;;;8.46;46.87;93773.69;5066005;28;19931;-39
2023/03/17 10:39:31;;;;;;;;;;;;;;;8.57;49.13;93767.22;5050350;28;20381;-39
2023/03/17 10:41:57;;;;;;;;;;;;;;;8.20;48.40;93768.84;5050498;28;19923;-39
2023/03/17 10:44:38;;;;;;;;;;;;;;;8.30;48.32;93769.94;5050577;28;19917;-38
2023/03/17 10:47:03;;;;;;;;;;;;;;;8.32;48.57;93761.91;5050124;28;19916;-39
2023/03/17 10:49:31;;;;;;;;;;;;;;;8.31;49.36;93757.69;5037452;28;19920;-39
2023/03/17 10:51:56;;;;;;;;;;;;;;;8.15;51.72;93766.16;5045794;28;20008;-38
2023/03/17 10:54:22;;;;;;;;;;;;;;;7.94;52.59;93754.28;5030479;28;20353;-39
2023/03/17 10:56:48;;;;;;;;;;;;;;;8.14;48.32;93757.19;5041847;28;20472;-39
2023/03/17 10:59:16;;;;;;;;;;;;;;;7.91;46.80;93747.81;5050095;28;19917;-39
2023/03/17 11:01:58;;;;;;;;;;;;;;;8.04;49.43;93745.09;5050172;28;19917;-39
2023/03/17 11:04:23;;;;;;;;;;;;;;;7.88;50.41;93746.13;5049884;28;19921;-39
2023/03/17 11:06:49;;;;;;;;;;;;;;;8.06;48.00;93744.56;5041921;28;19998;-39
2023/03/17 11:09:17;;;;;;;;;;;;;;;7.89;49.68;93750.34;5029195;28;20011;-39
2023/03/17 11:11:49;;;;;;;;;;;;;;;7.59;49.81;93755.31;5044910;28;20440;-39
2023/03/17 11:14:15;;;;;;;;;;;;;;;7.60;52.41;93748.56;5045077;28;19917;-39
2023/03/17 11:16:52;;;;;;;;;;;;;;;7.53;52.02;93746.41;5029860;28;20016;-39
2023/03/17 11:19:17;;;;;;;;;;;;;;;7.38;53.00;93749.63;5029771;28;19940;-39
2023/03/17 11:21:46;;;;;;;;;;;;;;;7.34;54.92;93753.94;5044898;28;19979;-39
2023/03/17 11:24:12;;;;;;;;;;;;;;;7.63;55.41;93733.75;5029675;28;19913;-39
2023/03/17 11:26:45;;;;;;;;;;;;;;;7.66;52.06;93743.72;5045191;28;20313;-39
2023/03/17 11:29:18;;;;;;;;;;;;;;;7.79;50.52;93740.28;5029672;28;19917;-39
2023/03/17 11:32:02;;;;;;;;;;;;;;;7.78;53.83;93733.28;5029217;28;19933;-38
2023/03/17 11:34:33;;;;;;;;;;;;;;;7.92;52.58;93738.31;5043836;28;19920;-39
2023/03/17 11:37:02;;;;;;;;;;;;;;;8.01;53.03;93737.16;5049317;28;19912;-39
2023/03/17 11:39:32;;;;;;;;;;;;;;;8.10;52.85;93743.00;5064630;28;19912;-38
2023/03/17 11:41:57;;;;;;;;;;;;;;;8.34;52.51;93728.34;5049454;28;20371;-39
2023/03/17 11:44:31;;;;;;;;;;;;;;;7.82;53.19;93744.75;5049551;28;19921;-39
2023/03/17 11:47:15;;;;;;;;;;;;;;;7.90;53.97;93740.09;5049317;28;19912;-39
2023/03/17 11:49:41;;;;;;;;;;;;;;;8.04;54.25;93736.09;5035165;28;19936;-38
2023/03/17 11:52:12;;;;;;;;;;;;;;;8.10;53.37;93734.75;5044589;28;19913;-39
2023/03/17 11:54:40;;;;;;;;;;;;;;;8.06;52.67;93737.06;5029383;28;19920;-38
2023/03/17 11:57:16;;;;;;;;;;;;;;;8.18;53.24;93738.38;5043197;28;19917;-39
2023/03/17 11:59:52;;;;;;;;;;;;;;;8.07;53.41;93743.31;5064366;28;20397;-39
2023/03/17 12:02:32;;;;;;;;;;;;;;;8.37;52.57;93743.81;5064490;28;19921;-39
2023/03/17 12:05:05;;;;;;;;;;;;;;;7.94;55.60;93743.28;5009455;28;20423;-39
2023/03/17 12:07:30;;;;;;;;;;;;;;;8.36;54.74;93745.81;5055001;28;19917;-39
2023/03/17 12:09:58;;;;;;;;;;;;;;;8.85;53.17;93745.44;5029088;28;20297;-39
2023/03/17 12:12:25;;;;;;;;;;;;;;;9.43;51.59;93747.97;5029269;28;19940;-39
2023/03/17 12:14:52;;;;;;;;;;;;;;;9.51;51.13;93751.56;5044677;28;19979;-38
2023/03/17 12:17:46;;;;;;;;;;;;;;;9.47;51.93;93751.91;5044253;28;19921;-39
2023/03/17 12:20:15;;;;;;;;;;;;;;;9.88;52.05;93745.69;5026837;28;20480;-39
2023/03/17 12:22:45;;;;;;;;;;;;;;;9.72;50.64;93757.88;5032912;28;19924;-39
2023/03/17 12:25:16;;;;;;;;;;;;;;;9.59;52.09;93752.41;5033346;28;19924;-39
2023/03/17 12:27:43;;;;;;;;;;;;;;;10.64;51.14;93755.38;5048329;28;20312;-39
2023/03/17 12:30:16;;;;;;;;;;;;;;;10.91;47.96;93753.19;5032910;28;19913;-39
2023/03/17 12:32:47;;;;;;;;;;;;;;;10.16;48.67;93747.81;5032526;28;19913;-39
2023/03/17 12:35:26;;;;;;;;;;;;;;;10.00;51.12;93743.44;5044941;28;19913;-39
2023/03/17 12:37:52;;;;;;;;;;;;;;;9.60;51.86;93760.13;5013335;28;19936;-39
2023/03/17 12:40:44;;;;;;;;;;;;;;;9.44;51.66;93749.47;5013222;28;19914;-38
2023/03/17 12:43:10;;;;;;;;;;;;;;;8.73;53.67;93764.16;5013658;28;19922;-39
2023/03/17 12:45:44;;;;;;;;;;;;;;;8.75;52.85;93758.88;5013077;28;19917;-38
2023/03/17 12:48:26;;;;;;;;;;;;;;;8.65;56.04;93757.81;5014174;28;19921;-38
2023/03/17 12:51:09;;;;;;;;;;;;;;;8.60;54.66;93755.91;5048200;28;20403;-38
2023/03/17 12:53:38;;;;;;;;;;;;;;;8.22;52.23;93758.06;5047863;28;20003;-39